sensor_id;sensor_type;location;lat;lon;timestamp;temperature;humidity
36424;DHT22;22458;45.328;9.514;2022-09-28T00:01:13;18.00;70.20
36424;DHT22;22458;45.328;9.514;2022-09-28T00:03:39;17.90;69.60
36424;DHT22;22458;45.328;9.514;2022-09-28T00:06:07;17.90;69.70
36424;DHT22;22458;45.328;9.514;2022-09-28T00:08:34;17.80;69.70
36424;DHT22;22458;45.328;9.514;2022-09-28T00:11:01;17.80;69.40
36424;DHT22;22458;45.328;9.514;2022-09-28T00:13:26;17.80;68.70
36424;DHT22;22458;45.328;9.514;2022-09-28T00:16:02;17.70;68.20
36424;DHT22;22458;45.328;9.514;2022-09-28T00:18:28;17.80;67.60
36424;DHT22;22458;45.328;9.514;2022-09-28T00:21:02;17.70;67.40
36424;DHT22;22458;45.328;9.514;2022-09-28T00:23:29;17.70;67.10
36424;DHT22;22458;45.328;9.514;2022-09-28T00:25:54;17.60;67.10
36424;DHT22;22458;45.328;9.514;2022-09-28T00:28:21;17.60;67.10
36424;DHT22;22458;45.328;9.514;2022-09-28T00:30:47;17.50;66.90
36424;DHT22;22458;45.328;9.514;2022-09-28T00:33:13;17.50;66.60
36424;DHT22;22458;45.328;9.514;2022-09-28T00:35:38;17.50;66.40
36424;DHT22;22458;45.328;9.514;2022-09-28T00:38:04;17.50;66.30
36424;DHT22;22458;45.328;9.514;2022-09-28T00:40:30;17.40;66.20
36424;DHT22;22458;45.328;9.514;2022-09-28T00:42:56;17.40;66.30
36424;DHT22;22458;45.328;9.514;2022-09-28T00:45:24;17.20;66.30
36424;DHT22;22458;45.328;9.514;2022-09-28T00:47:54;17.10;66.40
36424;DHT22;22458;45.328;9.514;2022-09-28T00:50:30;17.10;66.60
36424;DHT22;22458;45.328;9.514;2022-09-28T00:53:05;17.10;66.60
36424;DHT22;22458;45.328;9.514;2022-09-28T00:58:16;16.90;66.60
36424;DHT22;22458;45.328;9.514;2022-09-28T01:00:43;16.80;66.80
36424;DHT22;22458;45.328;9.514;2022-09-28T01:03:10;16.80;66.80
36424;DHT22;22458;45.328;9.514;2022-09-28T01:05:39;16.80;66.90
36424;DHT22;22458;45.328;9.514;2022-09-28T01:08:06;16.90;66.70
36424;DHT22;22458;45.328;9.514;2022-09-28T01:10:32;16.90;66.70
36424;DHT22;22458;45.328;9.514;2022-09-28T01:12:58;16.90;66.80
36424;DHT22;22458;45.328;9.514;2022-09-28T01:15:27;16.90;66.80
36424;DHT22;22458;45.328;9.514;2022-09-28T01:18:04;16.80;66.90
36424;DHT22;22458;45.328;9.514;2022-09-28T01:21:00;16.70;67.20
36424;DHT22;22458;45.328;9.514;2022-09-28T01:23:49;16.70;67.20
36424;DHT22;22458;45.328;9.514;2022-09-28T01:31:40;16.60;67.60
36424;DHT22;22458;45.328;9.514;2022-09-28T01:34:13;16.60;67.80
36424;DHT22;22458;45.328;9.514;2022-09-28T01:36:53;16.70;67.90
36424;DHT22;22458;45.328;9.514;2022-09-28T01:39:25;16.70;67.80
36424;DHT22;22458;45.328;9.514;2022-09-28T01:41:54;16.50;68.30
36424;DHT22;22458;45.328;9.514;2022-09-28T01:44:24;16.50;68.70
36424;DHT22;22458;45.328;9.514;2022-09-28T01:46:53;16.50;68.90
36424;DHT22;22458;45.328;9.514;2022-09-28T01:49:25;16.50;69.10
36424;DHT22;22458;45.328;9.514;2022-09-28T01:51:59;16.30;69.60
36424;DHT22;22458;45.328;9.514;2022-09-28T01:54:48;16.20;70.20
36424;DHT22;22458;45.328;9.514;2022-09-28T01:57:17;16.30;70.50
36424;DHT22;22458;45.328;9.514;2022-09-28T02:00:03;16.20;70.40
36424;DHT22;22458;45.328;9.514;2022-09-28T02:02:58;16.30;71.00
36424;DHT22;22458;45.328;9.514;2022-09-28T02:05:38;16.30;71.30
36424;DHT22;22458;45.328;9.514;2022-09-28T02:10:46;16.10;72.40
36424;DHT22;22458;45.328;9.514;2022-09-28T02:14:16;16.20;72.50
36424;DHT22;22458;45.328;9.514;2022-09-28T02:16:32;16.40;72.60
36424;DHT22;22458;45.328;9.514;2022-09-28T02:18:59;16.40;72.60
36424;DHT22;22458;45.328;9.514;2022-09-28T02:21:30;16.40;72.90
36424;DHT22;22458;45.328;9.514;2022-09-28T02:24:02;16.50;73.20
36424;DHT22;22458;45.328;9.514;2022-09-28T02:26:34;16.60;73.50
36424;DHT22;22458;45.328;9.514;2022-09-28T02:29:00;16.60;73.80
36424;DHT22;22458;45.328;9.514;2022-09-28T02:31:26;16.50;74.30
36424;DHT22;22458;45.328;9.514;2022-09-28T02:33:54;16.50;74.50
36424;DHT22;22458;45.328;9.514;2022-09-28T02:36:21;16.60;74.70
36424;DHT22;22458;45.328;9.514;2022-09-28T02:38:47;16.70;74.90
36424;DHT22;22458;45.328;9.514;2022-09-28T02:41:42;16.80;75.10
36424;DHT22;22458;45.328;9.514;2022-09-28T02:46:57;16.90;75.70
36424;DHT22;22458;45.328;9.514;2022-09-28T02:49:54;16.90;75.90
36424;DHT22;22458;45.328;9.514;2022-09-28T02:55:28;16.90;76.40
36424;DHT22;22458;45.328;9.514;2022-09-28T02:58:24;17.00;76.90
36424;DHT22;22458;45.328;9.514;2022-09-28T03:06:21;16.90;77.70
36424;DHT22;22458;45.328;9.514;2022-09-28T03:09:08;17.00;77.90
36424;DHT22;22458;45.328;9.514;2022-09-28T03:11:40;17.00;78.00
36424;DHT22;22458;45.328;9.514;2022-09-28T03:14:09;16.90;77.70
36424;DHT22;22458;45.328;9.514;2022-09-28T03:16:45;16.90;78.10
36424;DHT22;22458;45.328;9.514;2022-09-28T03:19:12;17.00;78.50
36424;DHT22;22458;45.328;9.514;2022-09-28T03:21:38;17.00;78.50
36424;DHT22;22458;45.328;9.514;2022-09-28T03:24:04;17.00;78.60
36424;DHT22;22458;45.328;9.514;2022-09-28T03:26:33;17.00;79.00
36424;DHT22;22458;45.328;9.514;2022-09-28T03:28:59;17.00;79.30
36424;DHT22;22458;45.328;9.514;2022-09-28T03:31:26;17.00;79.30
36424;DHT22;22458;45.328;9.514;2022-09-28T03:33:52;17.00;79.40
36424;DHT22;22458;45.328;9.514;2022-09-28T03:36:18;17.00;79.70
36424;DHT22;22458;45.328;9.514;2022-09-28T03:38:44;17.00;79.90
36424;DHT22;22458;45.328;9.514;2022-09-28T03:41:10;17.00;79.80
36424;DHT22;22458;45.328;9.514;2022-09-28T03:43:39;17.00;79.80
36424;DHT22;22458;45.328;9.514;2022-09-28T03:46:05;17.00;79.90
36424;DHT22;22458;45.328;9.514;2022-09-28T03:48:38;17.00;80.10
36424;DHT22;22458;45.328;9.514;2022-09-28T03:51:05;17.00;80.10
36424;DHT22;22458;45.328;9.514;2022-09-28T03:53:34;17.10;80.20
36424;DHT22;22458;45.328;9.514;2022-09-28T03:56:06;17.10;80.30
36424;DHT22;22458;45.328;9.514;2022-09-28T03:58:32;17.10;80.50
36424;DHT22;22458;45.328;9.514;2022-09-28T04:01:03;17.10;80.70
36424;DHT22;22458;45.328;9.514;2022-09-28T04:03:29;17.10;80.70
36424;DHT22;22458;45.328;9.514;2022-09-28T04:05:56;17.10;80.70
36424;DHT22;22458;45.328;9.514;2022-09-28T04:08:22;17.10;80.80
36424;DHT22;22458;45.328;9.514;2022-09-28T04:10:47;17.20;80.80
36424;DHT22;22458;45.328;9.514;2022-09-28T04:13:13;17.10;80.90
36424;DHT22;22458;45.328;9.514;2022-09-28T04:15:40;17.10;81.00
36424;DHT22;22458;45.328;9.514;2022-09-28T04:18:10;17.10;81.10
36424;DHT22;22458;45.328;9.514;2022-09-28T04:21:05;17.10;81.30
36424;DHT22;22458;45.328;9.514;2022-09-28T04:23:36;17.10;81.40
36424;DHT22;22458;45.328;9.514;2022-09-28T04:26:04;17.10;81.50
36424;DHT22;22458;45.328;9.514;2022-09-28T04:28:30;17.10;81.50
36424;DHT22;22458;45.328;9.514;2022-09-28T04:31:18;17.20;81.50
36424;DHT22;22458;45.328;9.514;2022-09-28T04:33:45;17.20;81.40
36424;DHT22;22458;45.328;9.514;2022-09-28T04:36:11;17.10;81.40
36424;DHT22;22458;45.328;9.514;2022-09-28T04:38:37;17.20;81.40
36424;DHT22;22458;45.328;9.514;2022-09-28T04:41:03;17.10;81.50
36424;DHT22;22458;45.328;9.514;2022-09-28T04:43:31;17.20;81.60
36424;DHT22;22458;45.328;9.514;2022-09-28T04:45:58;17.20;81.50
36424;DHT22;22458;45.328;9.514;2022-09-28T04:48:27;17.20;81.50
36424;DHT22;22458;45.328;9.514;2022-09-28T04:51:10;17.20;81.50
36424;DHT22;22458;45.328;9.514;2022-09-28T04:53:35;17.10;81.40
36424;DHT22;22458;45.328;9.514;2022-09-28T04:56:09;17.20;81.50
36424;DHT22;22458;45.328;9.514;2022-09-28T04:58:37;17.20;81.40
36424;DHT22;22458;45.328;9.514;2022-09-28T05:01:06;17.20;81.30
36424;DHT22;22458;45.328;9.514;2022-09-28T05:03:54;17.20;81.20
36424;DHT22;22458;45.328;9.514;2022-09-28T05:06:39;17.20;81.30
36424;DHT22;22458;45.328;9.514;2022-09-28T05:09:06;17.20;81.40
36424;DHT22;22458;45.328;9.514;2022-09-28T05:11:33;17.20;81.40
36424;DHT22;22458;45.328;9.514;2022-09-28T05:13:59;17.20;81.30
36424;DHT22;22458;45.328;9.514;2022-09-28T05:16:25;17.20;81.20
36424;DHT22;22458;45.328;9.514;2022-09-28T05:19:10;17.10;81.20
36424;DHT22;22458;45.328;9.514;2022-09-28T05:21:37;17.10;81.30
36424;DHT22;22458;45.328;9.514;2022-09-28T05:24:03;17.20;81.20
36424;DHT22;22458;45.328;9.514;2022-09-28T05:26:34;17.20;81.20
36424;DHT22;22458;45.328;9.514;2022-09-28T05:28:59;17.10;81.10
36424;DHT22;22458;45.328;9.514;2022-09-28T05:31:44;17.20;81.10
36424;DHT22;22458;45.328;9.514;2022-09-28T05:34:33;17.10;81.10
36424;DHT22;22458;45.328;9.514;2022-09-28T05:37:00;17.10;81.10
36424;DHT22;22458;45.328;9.514;2022-09-28T05:39:26;17.20;81.00
36424;DHT22;22458;45.328;9.514;2022-09-28T05:41:53;17.20;80.80
36424;DHT22;22458;45.328;9.514;2022-09-28T05:44:20;17.30;80.80
36424;DHT22;22458;45.328;9.514;2022-09-28T05:46:47;17.20;80.60
36424;DHT22;22458;45.328;9.514;2022-09-28T05:49:13;17.30;80.50
36424;DHT22;22458;45.328;9.514;2022-09-28T05:51:39;17.30;81.10
36424;DHT22;22458;45.328;9.514;2022-09-28T05:54:05;17.30;80.40
36424;DHT22;22458;45.328;9.514;2022-09-28T05:56:31;17.30;80.30
36424;DHT22;22458;45.328;9.514;2022-09-28T05:58:57;17.30;80.20
36424;DHT22;22458;45.328;9.514;2022-09-28T06:01:26;17.40;80.20
36424;DHT22;22458;45.328;9.514;2022-09-28T06:03:53;17.30;80.10
36424;DHT22;22458;45.328;9.514;2022-09-28T06:06:21;17.30;80.10
36424;DHT22;22458;45.328;9.514;2022-09-28T06:08:47;17.30;80.10
36424;DHT22;22458;45.328;9.514;2022-09-28T06:11:45;17.30;80.10
36424;DHT22;22458;45.328;9.514;2022-09-28T06:14:23;17.40;80.10
36424;DHT22;22458;45.328;9.514;2022-09-28T06:16:48;17.30;80.00
36424;DHT22;22458;45.328;9.514;2022-09-28T06:19:15;17.30;80.00
36424;DHT22;22458;45.328;9.514;2022-09-28T06:22:10;17.30;80.10
36424;DHT22;22458;45.328;9.514;2022-09-28T06:24:43;17.30;80.20
36424;DHT22;22458;45.328;9.514;2022-09-28T06:27:09;17.30;80.20
36424;DHT22;22458;45.328;9.514;2022-09-28T06:29:35;17.30;80.10
36424;DHT22;22458;45.328;9.514;2022-09-28T06:32:01;17.40;80.10
36424;DHT22;22458;45.328;9.514;2022-09-28T06:34:27;17.40;80.00
36424;DHT22;22458;45.328;9.514;2022-09-28T06:36:54;17.40;80.00
36424;DHT22;22458;45.328;9.514;2022-09-28T06:39:20;17.50;80.10
36424;DHT22;22458;45.328;9.514;2022-09-28T06:41:46;17.40;80.00
36424;DHT22;22458;45.328;9.514;2022-09-28T06:44:16;17.40;80.10
36424;DHT22;22458;45.328;9.514;2022-09-28T06:47:00;17.40;80.10
36424;DHT22;22458;45.328;9.514;2022-09-28T06:49:44;17.30;80.30
36424;DHT22;22458;45.328;9.514;2022-09-28T06:52:34;17.40;80.30
36424;DHT22;22458;45.328;9.514;2022-09-28T06:55:04;17.40;80.40
36424;DHT22;22458;45.328;9.514;2022-09-28T06:57:42;17.40;80.40
36424;DHT22;22458;45.328;9.514;2022-09-28T07:00:08;17.40;80.40
36424;DHT22;22458;45.328;9.514;2022-09-28T07:02:35;17.40;80.30
36424;DHT22;22458;45.328;9.514;2022-09-28T07:05:11;17.50;80.20
36424;DHT22;22458;45.328;9.514;2022-09-28T07:08:14;17.60;80.20
36424;DHT22;22458;45.328;9.514;2022-09-28T07:11:04;17.60;80.20
36424;DHT22;22458;45.328;9.514;2022-09-28T07:13:41;17.60;80.10
36424;DHT22;22458;45.328;9.514;2022-09-28T07:16:07;17.60;80.10
36424;DHT22;22458;45.328;9.514;2022-09-28T07:18:33;17.60;80.10
36424;DHT22;22458;45.328;9.514;2022-09-28T07:20:58;17.70;80.00
36424;DHT22;22458;45.328;9.514;2022-09-28T07:23:27;17.70;79.90
36424;DHT22;22458;45.328;9.514;2022-09-28T07:26:14;17.70;79.80
36424;DHT22;22458;45.328;9.514;2022-09-28T07:28:52;17.80;79.60
36424;DHT22;22458;45.328;9.514;2022-09-28T07:31:39;17.90;79.50
36424;DHT22;22458;45.328;9.514;2022-09-28T07:34:17;17.90;79.40
36424;DHT22;22458;45.328;9.514;2022-09-28T07:37:01;18.00;79.20
36424;DHT22;22458;45.328;9.514;2022-09-28T07:39:27;17.90;79.10
36424;DHT22;22458;45.328;9.514;2022-09-28T07:41:54;18.00;79.10
36424;DHT22;22458;45.328;9.514;2022-09-28T07:44:20;18.00;79.10
36424;DHT22;22458;45.328;9.514;2022-09-28T07:46:50;18.00;79.10
36424;DHT22;22458;45.328;9.514;2022-09-28T07:49:22;17.90;79.20
36424;DHT22;22458;45.328;9.514;2022-09-28T07:52:07;17.90;79.30
36424;DHT22;22458;45.328;9.514;2022-09-28T07:54:45;17.90;79.40
36424;DHT22;22458;45.328;9.514;2022-09-28T07:57:41;17.90;79.20
36424;DHT22;22458;45.328;9.514;2022-09-28T08:00:25;18.00;79.00
36424;DHT22;22458;45.328;9.514;2022-09-28T08:02:51;18.10;78.80
36424;DHT22;22458;45.328;9.514;2022-09-28T08:05:21;18.20;78.50
36424;DHT22;22458;45.328;9.514;2022-09-28T08:07:47;18.20;78.40
36424;DHT22;22458;45.328;9.514;2022-09-28T08:10:15;18.30;78.30
36424;DHT22;22458;45.328;9.514;2022-09-28T08:13:00;18.40;78.10
36424;DHT22;22458;45.328;9.514;2022-09-28T08:15:41;18.50;78.10
36424;DHT22;22458;45.328;9.514;2022-09-28T08:18:27;18.50;78.00
36424;DHT22;22458;45.328;9.514;2022-09-28T08:20:54;18.60;77.90
36424;DHT22;22458;45.328;9.514;2022-09-28T08:23:43;18.60;77.70
36424;DHT22;22458;45.328;9.514;2022-09-28T08:26:10;18.60;77.50
36424;DHT22;22458;45.328;9.514;2022-09-28T08:28:56;18.60;77.40
36424;DHT22;22458;45.328;9.514;2022-09-28T08:31:42;18.70;77.30
36424;DHT22;22458;45.328;9.514;2022-09-28T08:34:31;18.70;77.10
36424;DHT22;22458;45.328;9.514;2022-09-28T08:37:16;18.70;76.90
36424;DHT22;22458;45.328;9.514;2022-09-28T08:40:03;18.70;76.70
36424;DHT22;22458;45.328;9.514;2022-09-28T08:42:39;18.70;76.50
36424;DHT22;22458;45.328;9.514;2022-09-28T08:45:28;18.80;76.30
36424;DHT22;22458;45.328;9.514;2022-09-28T08:48:27;18.80;76.20
36424;DHT22;22458;45.328;9.514;2022-09-28T08:51:16;18.90;76.00
36424;DHT22;22458;45.328;9.514;2022-09-28T08:56:48;19.00;75.80
36424;DHT22;22458;45.328;9.514;2022-09-28T08:59:56;19.10;75.70
36424;DHT22;22458;45.328;9.514;2022-09-28T09:02:33;19.10;75.20
36424;DHT22;22458;45.328;9.514;2022-09-28T09:05:16;19.10;75.20
36424;DHT22;22458;45.328;9.514;2022-09-28T09:08:40;19.10;75.40
36424;DHT22;22458;45.328;9.514;2022-09-28T09:14:58;19.20;75.00
36424;DHT22;22458;45.328;9.514;2022-09-28T09:17:09;19.20;74.80
36424;DHT22;22458;45.328;9.514;2022-09-28T09:20:23;19.20;74.80
36424;DHT22;22458;45.328;9.514;2022-09-28T09:23:57;19.30;74.60
36424;DHT22;22458;45.328;9.514;2022-09-28T09:26:14;19.30;74.70
36424;DHT22;22458;45.328;9.514;2022-09-28T09:31:53;19.50;74.40
36424;DHT22;22458;45.328;9.514;2022-09-28T09:34:30;19.60;74.10
36424;DHT22;22458;45.328;9.514;2022-09-28T09:46:39;19.70;73.60
36424;DHT22;22458;45.328;9.514;2022-09-28T09:49:39;19.70;73.40
36424;DHT22;22458;45.328;9.514;2022-09-28T09:52:50;19.80;72.80
36424;DHT22;22458;45.328;9.514;2022-09-28T09:55:25;19.80;72.30
36424;DHT22;22458;45.328;9.514;2022-09-28T09:58:13;19.90;72.60
36424;DHT22;22458;45.328;9.514;2022-09-28T10:00:47;20.00;72.70
36424;DHT22;22458;45.328;9.514;2022-09-28T10:03:29;20.10;72.50
36424;DHT22;22458;45.328;9.514;2022-09-28T10:06:11;20.20;72.10
36424;DHT22;22458;45.328;9.514;2022-09-28T10:08:43;20.30;71.90
36424;DHT22;22458;45.328;9.514;2022-09-28T10:11:25;20.40;71.50
36424;DHT22;22458;45.328;9.514;2022-09-28T10:13:54;20.50;71.10
36424;DHT22;22458;45.328;9.514;2022-09-28T10:16:43;20.50;71.10
36424;DHT22;22458;45.328;9.514;2022-09-28T10:19:31;20.50;70.90
36424;DHT22;22458;45.328;9.514;2022-09-28T10:22:20;20.60;70.60
36424;DHT22;22458;45.328;9.514;2022-09-28T10:24:50;20.80;70.60
36424;DHT22;22458;45.328;9.514;2022-09-28T10:27:20;20.90;70.40
36424;DHT22;22458;45.328;9.514;2022-09-28T10:32:45;21.10;69.50
36424;DHT22;22458;45.328;9.514;2022-09-28T10:41:00;21.40;69.00
36424;DHT22;22458;45.328;9.514;2022-09-28T10:43:52;21.50;68.80
36424;DHT22;22458;45.328;9.514;2022-09-28T10:46:33;21.60;68.40
36424;DHT22;22458;45.328;9.514;2022-09-28T10:49:10;21.70;68.60
36424;DHT22;22458;45.328;9.514;2022-09-28T10:51:43;21.90;68.10
36424;DHT22;22458;45.328;9.514;2022-09-28T10:54:19;22.00;67.60
36424;DHT22;22458;45.328;9.514;2022-09-28T10:56:53;22.10;67.20
36424;DHT22;22458;45.328;9.514;2022-09-28T10:59:40;22.20;66.60
36424;DHT22;22458;45.328;9.514;2022-09-28T11:02:39;22.30;67.00
36424;DHT22;22458;45.328;9.514;2022-09-28T11:05:22;22.50;66.20
36424;DHT22;22458;45.328;9.514;2022-09-28T11:07:53;22.60;65.70
36424;DHT22;22458;45.328;9.514;2022-09-28T11:10:29;22.50;65.80
36424;DHT22;22458;45.328;9.514;2022-09-28T11:13:08;22.60;65.60
36424;DHT22;22458;45.328;9.514;2022-09-28T11:15:40;22.70;65.50
36424;DHT22;22458;45.328;9.514;2022-09-28T11:18:26;22.70;65.60
36424;DHT22;22458;45.328;9.514;2022-09-28T11:21:13;22.80;65.10
36424;DHT22;22458;45.328;9.514;2022-09-28T11:24:16;22.70;65.10
36424;DHT22;22458;45.328;9.514;2022-09-28T11:26:53;22.80;65.10
36424;DHT22;22458;45.328;9.514;2022-09-28T11:29:36;22.80;65.10
36424;DHT22;22458;45.328;9.514;2022-09-28T11:32:38;22.70;64.80
36424;DHT22;22458;45.328;9.514;2022-09-28T11:36:08;22.60;64.90
36424;DHT22;22458;45.328;9.514;2022-09-28T11:50:14;22.50;65.00
36424;DHT22;22458;45.328;9.514;2022-09-28T11:52:56;22.50;65.10
36424;DHT22;22458;45.328;9.514;2022-09-28T11:58:39;22.70;65.00
36424;DHT22;22458;45.328;9.514;2022-09-28T12:04:49;22.70;65.00
36424;DHT22;22458;45.328;9.514;2022-09-28T12:07:25;22.70;64.70
36424;DHT22;22458;45.328;9.514;2022-09-28T12:09:58;22.70;64.80
36424;DHT22;22458;45.328;9.514;2022-09-28T12:12:32;22.80;65.20
36424;DHT22;22458;45.328;9.514;2022-09-28T12:18:05;23.00;64.40
36424;DHT22;22458;45.328;9.514;2022-09-28T12:20:37;23.10;64.20
36424;DHT22;22458;45.328;9.514;2022-09-28T12:23:10;23.10;64.10
36424;DHT22;22458;45.328;9.514;2022-09-28T12:25:48;23.10;63.80
36424;DHT22;22458;45.328;9.514;2022-09-28T12:28:28;23.00;63.40
36424;DHT22;22458;45.328;9.514;2022-09-28T12:30:59;23.00;63.70
36424;DHT22;22458;45.328;9.514;2022-09-28T12:33:29;23.00;63.60
36424;DHT22;22458;45.328;9.514;2022-09-28T12:36:18;22.90;63.60
36424;DHT22;22458;45.328;9.514;2022-09-28T12:41:57;23.00;63.30
36424;DHT22;22458;45.328;9.514;2022-09-28T12:49:57;23.10;63.20
36424;DHT22;22458;45.328;9.514;2022-09-28T12:55:10;23.10;63.30
36424;DHT22;22458;45.328;9.514;2022-09-28T12:57:57;23.10;63.40
36424;DHT22;22458;45.328;9.514;2022-09-28T13:00:30;23.10;63.30
36424;DHT22;22458;45.328;9.514;2022-09-28T13:03:17;23.20;63.50
36424;DHT22;22458;45.328;9.514;2022-09-28T13:11:53;23.30;63.20
36424;DHT22;22458;45.328;9.514;2022-09-28T13:20:16;23.30;63.30
36424;DHT22;22458;45.328;9.514;2022-09-28T13:26:15;23.30;63.00
36424;DHT22;22458;45.328;9.514;2022-09-28T13:28:45;23.30;62.90
36424;DHT22;22458;45.328;9.514;2022-09-28T13:31:17;23.30;63.10
36424;DHT22;22458;45.328;9.514;2022-09-28T13:33:44;23.30;62.80
36424;DHT22;22458;45.328;9.514;2022-09-28T13:38:58;23.50;62.30
36424;DHT22;22458;45.328;9.514;2022-09-28T13:41:29;23.50;62.30
36424;DHT22;22458;45.328;9.514;2022-09-28T13:52:08;23.70;61.90
36424;DHT22;22458;45.328;9.514;2022-09-28T13:55:02;23.80;61.80
36424;DHT22;22458;45.328;9.514;2022-09-28T14:05:43;23.60;62.10
36424;DHT22;22458;45.328;9.514;2022-09-28T14:08:44;23.60;61.90
36424;DHT22;22458;45.328;9.514;2022-09-28T14:16:36;23.70;61.50
36424;DHT22;22458;45.328;9.514;2022-09-28T14:32:40;23.60;61.10
36424;DHT22;22458;45.328;9.514;2022-09-28T14:35:30;23.60;61.20
36424;DHT22;22458;45.328;9.514;2022-09-28T14:38:03;23.70;61.10
36424;DHT22;22458;45.328;9.514;2022-09-28T14:41:28;23.80;61.00
36424;DHT22;22458;45.328;9.514;2022-09-28T14:46:30;23.80;60.60
36424;DHT22;22458;45.328;9.514;2022-09-28T14:59:23;23.70;60.80
36424;DHT22;22458;45.328;9.514;2022-09-28T15:02:17;23.70;61.10
36424;DHT22;22458;45.328;9.514;2022-09-28T15:05:08;23.70;61.20
36424;DHT22;22458;45.328;9.514;2022-09-28T15:07:50;23.50;61.50
36424;DHT22;22458;45.328;9.514;2022-09-28T15:10:24;23.50;61.50
36424;DHT22;22458;45.328;9.514;2022-09-28T15:12:51;23.40;61.60
36424;DHT22;22458;45.328;9.514;2022-09-28T15:15:35;23.40;61.90
36424;DHT22;22458;45.328;9.514;2022-09-28T15:18:13;23.40;61.90
36424;DHT22;22458;45.328;9.514;2022-09-28T15:20:45;23.40;62.20
36424;DHT22;22458;45.328;9.514;2022-09-28T15:25:59;23.30;62.20
36424;DHT22;22458;45.328;9.514;2022-09-28T15:28:25;23.30;62.50
36424;DHT22;22458;45.328;9.514;2022-09-28T15:30:59;23.30;62.60
36424;DHT22;22458;45.328;9.514;2022-09-28T15:33:34;23.30;62.60
36424;DHT22;22458;45.328;9.514;2022-09-28T15:36:25;23.30;62.60
36424;DHT22;22458;45.328;9.514;2022-09-28T15:39:20;23.30;62.70
36424;DHT22;22458;45.328;9.514;2022-09-28T15:41:49;23.20;62.50
36424;DHT22;22458;45.328;9.514;2022-09-28T15:44:18;23.20;62.70
36424;DHT22;22458;45.328;9.514;2022-09-28T15:46:48;23.20;62.90
36424;DHT22;22458;45.328;9.514;2022-09-28T15:50:19;23.20;63.00
36424;DHT22;22458;45.328;9.514;2022-09-28T15:52:43;23.10;63.70
36424;DHT22;22458;45.328;9.514;2022-09-28T15:55:38;23.10;63.40
36424;DHT22;22458;45.328;9.514;2022-09-28T16:00:41;23.00;63.40
36424;DHT22;22458;45.328;9.514;2022-09-28T16:05:43;23.00;63.50
36424;DHT22;22458;45.328;9.514;2022-09-28T16:08:38;22.90;63.50
36424;DHT22;22458;45.328;9.514;2022-09-28T16:16:48;22.80;63.80
36424;DHT22;22458;45.328;9.514;2022-09-28T16:19:35;22.70;63.70
36424;DHT22;22458;45.328;9.514;2022-09-28T16:22:08;22.70;63.80
36424;DHT22;22458;45.328;9.514;2022-09-28T16:24:38;22.70;64.10
36424;DHT22;22458;45.328;9.514;2022-09-28T16:27:41;22.70;64.20
36424;DHT22;22458;45.328;9.514;2022-09-28T16:30:25;22.70;64.00
36424;DHT22;22458;45.328;9.514;2022-09-28T16:33:00;22.60;64.10
36424;DHT22;22458;45.328;9.514;2022-09-28T16:38:01;22.50;64.40
36424;DHT22;22458;45.328;9.514;2022-09-28T16:40:29;22.50;64.50
36424;DHT22;22458;45.328;9.514;2022-09-28T16:42:58;22.50;64.60
36424;DHT22;22458;45.328;9.514;2022-09-28T16:45:24;22.50;64.70
36424;DHT22;22458;45.328;9.514;2022-09-28T16:47:51;22.40;64.70
36424;DHT22;22458;45.328;9.514;2022-09-28T16:50:20;22.40;64.80
36424;DHT22;22458;45.328;9.514;2022-09-28T16:53:13;22.30;65.00
36424;DHT22;22458;45.328;9.514;2022-09-28T16:55:59;22.40;65.10
36424;DHT22;22458;45.328;9.514;2022-09-28T16:58:25;22.20;65.40
36424;DHT22;22458;45.328;9.514;2022-09-28T17:00:52;22.30;65.50
36424;DHT22;22458;45.328;9.514;2022-09-28T17:03:19;22.20;65.60
36424;DHT22;22458;45.328;9.514;2022-09-28T17:05:50;22.20;65.80
36424;DHT22;22458;45.328;9.514;2022-09-28T17:08:18;22.10;65.80
36424;DHT22;22458;45.328;9.514;2022-09-28T17:10:57;22.10;66.00
36424;DHT22;22458;45.328;9.514;2022-09-28T17:13:26;22.10;66.20
36424;DHT22;22458;45.328;9.514;2022-09-28T17:15:58;22.00;66.50
36424;DHT22;22458;45.328;9.514;2022-09-28T17:18:25;22.00;66.70
36424;DHT22;22458;45.328;9.514;2022-09-28T17:20:51;21.90;67.10
36424;DHT22;22458;45.328;9.514;2022-09-28T17:23:19;21.80;67.30
36424;DHT22;22458;45.328;9.514;2022-09-28T17:25:46;21.80;67.30
36424;DHT22;22458;45.328;9.514;2022-09-28T17:28:22;21.80;67.40
36424;DHT22;22458;45.328;9.514;2022-09-28T17:30:49;21.80;67.70
36424;DHT22;22458;45.328;9.514;2022-09-28T17:33:15;21.70;68.00
36424;DHT22;22458;45.328;9.514;2022-09-28T17:35:42;21.60;68.10
36424;DHT22;22458;45.328;9.514;2022-09-28T17:38:14;21.60;68.20
36424;DHT22;22458;45.328;9.514;2022-09-28T17:40:42;21.60;68.50
36424;DHT22;22458;45.328;9.514;2022-09-28T17:43:09;21.50;68.60
36424;DHT22;22458;45.328;9.514;2022-09-28T17:45:37;21.50;68.80
36424;DHT22;22458;45.328;9.514;2022-09-28T17:48:09;21.50;68.90
36424;DHT22;22458;45.328;9.514;2022-09-28T17:50:37;21.40;68.90
36424;DHT22;22458;45.328;9.514;2022-09-28T17:53:04;21.30;69.30
36424;DHT22;22458;45.328;9.514;2022-09-28T17:55:32;21.30;69.40
36424;DHT22;22458;45.328;9.514;2022-09-28T17:58:00;21.20;69.50
36424;DHT22;22458;45.328;9.514;2022-09-28T18:00:27;21.20;69.70
36424;DHT22;22458;45.328;9.514;2022-09-28T18:02:54;21.20;69.80
36424;DHT22;22458;45.328;9.514;2022-09-28T18:05:21;21.20;70.00
36424;DHT22;22458;45.328;9.514;2022-09-28T18:07:50;21.20;70.00
36424;DHT22;22458;45.328;9.514;2022-09-28T18:10:22;21.20;70.10
36424;DHT22;22458;45.328;9.514;2022-09-28T18:12:49;21.20;70.30
36424;DHT22;22458;45.328;9.514;2022-09-28T18:15:16;21.10;70.40
36424;DHT22;22458;45.328;9.514;2022-09-28T18:17:43;21.20;70.60
36424;DHT22;22458;45.328;9.514;2022-09-28T18:20:11;21.20;70.70
36424;DHT22;22458;45.328;9.514;2022-09-28T18:22:38;21.20;70.70
36424;DHT22;22458;45.328;9.514;2022-09-28T18:25:05;21.10;71.10
36424;DHT22;22458;45.328;9.514;2022-09-28T18:27:32;21.10;70.90
36424;DHT22;22458;45.328;9.514;2022-09-28T18:30:00;21.10;70.90
36424;DHT22;22458;45.328;9.514;2022-09-28T18:32:27;21.10;70.70
36424;DHT22;22458;45.328;9.514;2022-09-28T18:34:54;21.10;70.90
36424;DHT22;22458;45.328;9.514;2022-09-28T18:37:20;21.10;71.00
36424;DHT22;22458;45.328;9.514;2022-09-28T18:39:46;21.10;71.20
36424;DHT22;22458;45.328;9.514;2022-09-28T18:42:13;21.10;71.30
36424;DHT22;22458;45.328;9.514;2022-09-28T18:44:40;21.10;71.40
36424;DHT22;22458;45.328;9.514;2022-09-28T18:47:07;21.00;71.50
36424;DHT22;22458;45.328;9.514;2022-09-28T18:49:34;21.00;71.60
36424;DHT22;22458;45.328;9.514;2022-09-28T18:51:59;21.00;71.60
36424;DHT22;22458;45.328;9.514;2022-09-28T18:54:26;21.10;71.70
36424;DHT22;22458;45.328;9.514;2022-09-28T18:56:54;21.00;71.80
36424;DHT22;22458;45.328;9.514;2022-09-28T18:59:21;20.90;72.40
36424;DHT22;22458;45.328;9.514;2022-09-28T19:01:47;20.90;72.20